Panagia Gorgoepikoo — SV5327 — position and weather

sailwx.info

Track history (hours):
 
Tides and Currents Weather Stations Pressure Air Temp Water Temp Dewpoint Dewpoint Depression Visibility Wind Speed Wind Dir Waves Ship Positions

Panagia Gorgoepikoo

Last reported at 2018-Jul-21 02:50 UTC. Time now 2018-Jul-21 05:50 UTC.
Position N 40°51' E 024°19'.

Length 20 m; draft 2 m.

Type: Fishing. MMSI: 237963000.

Date/timePositionNaut miles runAvg speedWind from/ knotsBaromVisibWave heightAir tempDewpointWater temp
2018-Jul-21 02:50N 40°51' E 024°19'0 0.0
2018-Jul-21 02:30N 40°51' E 024°19'2 5.0
2018-Jul-21 02:00N 40°48' E 024°19'4 0.6
2018-Jul-20 19:40N 40°45' E 024°17'0 0.0
2018-Jul-20 19:30N 40°45' E 024°17'0 0.0
2018-Jul-20 19:00N 40°45' E 024°17'0 0.1
2018-Jul-20 18:31N 40°45' E 024°17'0 0.0
2018-Jul-20 17:59N 40°45' E 024°17'0 0.6
2018-Jul-20 17:30N 40°45' E 024°17'4 7.3
2018-Jul-20 17:01N 40°48' E 024°20'3 0.2
2018-Jul-20 02:26N 40°51' E 024°19'2 4.4
2018-Jul-20 02:00N 40°49' E 024°21'510.3
2018-Jul-20 01:30N 40°46' E 024°16'1 1.2
2018-Jul-20 00:55N 40°45' E 024°16'0 0.8
2018-Jul-20 00:30N 40°45' E 024°16'0 0.2
2018-Jul-20 00:00N 40°45' E 024°16'0 0.1
2018-Jul-19 23:23N 40°45' E 024°16'1 1.7
2018-Jul-19 23:00N 40°45' E 024°16'5 9.2
2018-Jul-19 22:30N 40°49' E 024°20'2 3.5
2018-Jul-19 22:00N 40°51' E 024°19'4 8.2
2018-Jul-19 21:29N 40°47' E 024°17'2 4.4
2018-Jul-19 21:00N 40°45' E 024°16'0 0.2
2018-Jul-19 20:30N 40°45' E 024°16'0 0.5
2018-Jul-19 20:00N 40°45' E 024°16'0 0.2
2018-Jul-19 19:30N 40°45' E 024°16'0 0.0
2018-Jul-19 18:56N 40°45' E 024°16'0 0.0
2018-Jul-19 18:30N 40°45' E 024°16'0 0.2
2018-Jul-19 18:00N 40°45' E 024°16'0 0.6
2018-Jul-19 17:30N 40°45' E 024°16'4 8.5
2018-Jul-19 17:00N 40°48' E 024°20'3 0.2
2018-Jul-19 01:17N 40°51' E 024°19'0 0.0
2018-Jul-19 01:00N 40°51' E 024°19'0 0.0
2018-Jul-19 00:30N 40°51' E 024°19'1 2.9
2018-Jul-19 00:00N 40°50' E 024°20'4 8.8
2018-Jul-18 23:30N 40°46' E 024°18'0 0.1
2018-Jul-18 23:00N 40°46' E 024°18'0 0.5
2018-Jul-18 22:30N 40°46' E 024°18'1 2.8
2018-Jul-18 22:00N 40°47' E 024°19'4 8.0
2018-Jul-18 21:30N 40°51' E 024°19'2 3.9
2018-Jul-18 21:00N 40°49' E 024°20'3 6.8
2018-Jul-18 20:30N 40°46' E 024°18'0 0.1
2018-Jul-18 20:00N 40°46' E 024°18'0 0.7
2018-Jul-18 19:30N 40°46' E 024°18'0 0.0
2018-Jul-18 19:00N 40°46' E 024°18'0 0.2
2018-Jul-18 18:30N 40°46' E 024°18'0 0.1
2018-Jul-18 18:00N 40°46' E 024°18'0 0.5
2018-Jul-18 17:30N 40°46' E 024°18'2 4.5
2018-Jul-18 16:59N 40°48' E 024°19'3 0.1
2018-Jul-17 05:42N 40°51' E 024°19'0 0.0
2018-Jul-17 05:30N 40°51' E 024°19'0 0.0
2018-Jul-17 05:00N 40°51' E 024°19'0 0.0
2018-Jul-17 04:30N 40°51' E 024°19'0 0.0
2018-Jul-17 04:00N 40°51' E 024°19'0 0.0
2018-Jul-17 03:30N 40°51' E 024°19'0 0.9
2018-Jul-17 03:00N 40°51' E 024°19'2 0.2
2018-Jul-16 16:54N 40°49' E 024°20'2 4.7
2018-Jul-16 16:28N 40°51' E 024°19'0 0.0
2018-Jul-16 15:59N 40°51' E 024°19'0 0.0
2018-Jul-16 15:30N 40°51' E 024°19'0 0.0
2018-Jul-16 09:13N 40°51' E 024°19'0 0.0
2018-Jul-16 08:57N 40°51' E 024°19'0 0.0
2018-Jul-16 08:07N 40°51' E 024°19'0 0.0
2018-Jul-16 06:47N 40°51' E 024°19'0 0.0
2018-Jul-16 06:17N 40°51' E 024°19'0 0.0
2018-Jul-16 05:54N 40°51' E 024°19'0 0.0
2018-Jul-16 05:30N 40°51' E 024°19'0 0.0
2018-Jul-16 04:59N 40°51' E 024°19'0 0.0
2018-Jul-16 04:27N 40°51' E 024°19'0 0.0
2018-Jul-16 03:57N 40°51' E 024°19'0 0.0
2018-Jul-16 03:30N 40°51' E 024°19'0 0.1
2018-Jul-16 03:00N 40°51' E 024°19'0 0.0
2018-Jul-16 02:30N 40°51' E 024°19'0 0.0
2018-Jul-16 02:00N 40°51' E 024°19'0 0.0
2018-Jul-16 01:30N 40°51' E 024°19'0 0.0
2018-Jul-15 16:43N 40°51' E 024°19'0 0.0
2018-Jul-15 16:30N 40°51' E 024°19'0 0.0
2018-Jul-15 16:00N 40°51' E 024°19'0 0.0
2018-Jul-15 15:30N 40°51' E 024°19'0 0.0
2018-Jul-15 15:00N 40°51' E 024°19'0 0.0
2018-Jul-15 14:30N 40°51' E 024°19'0 0.0
2018-Jul-15 14:01N 40°51' E 024°19'0 0.0
2018-Jul-15 13:30N 40°51' E 024°19'0 0.0
2018-Jul-15 13:00N 40°51' E 024°19'0 0.0
2018-Jul-15 12:30N 40°51' E 024°19'  
2018-Jul-11 17:49N 40°40' E 024°08'2 7.9
2018-Jul-11 17:31N 40°42' E 024°10'4 9.0
2018-Jul-11 17:01N 40°45' E 024°14'5 9.1
2018-Jul-11 16:31N 40°48' E 024°19'3 6.1
2018-Jul-11 16:00N 40°51' E 024°19'  
Track history (hours):
 
Tides and Currents Weather Stations Pressure Air Temp Water Temp Dewpoint Dewpoint Depression Visibility Wind Speed Wind Dir Waves Ship Positions

Panagia Gorgoepikoo

Last reported at 2018-Jul-21 02:50 UTC. Time now 2018-Jul-21 05:50 UTC.
Position N 40°51' E 024°19'.

Length 20 m; draft 2 m.

Type: Fishing. MMSI: 237963000.

Date/timePositionNaut miles runAvg speedWind from/ knotsBaromVisibWave heightAir tempDewpointWater temp
2018-Jul-21 02:50N 40°51' E 024°19'0 0.0
2018-Jul-21 02:30N 40°51' E 024°19'2 5.0
2018-Jul-21 02:00N 40°48' E 024°19'4 0.6
2018-Jul-20 19:40N 40°45' E 024°17'0 0.0
2018-Jul-20 19:30N 40°45' E 024°17'0 0.0
2018-Jul-20 19:00N 40°45' E 024°17'0 0.1
2018-Jul-20 18:31N 40°45' E 024°17'0 0.0
2018-Jul-20 17:59N 40°45' E 024°17'0 0.6
2018-Jul-20 17:30N 40°45' E 024°17'4 7.3
2018-Jul-20 17:01N 40°48' E 024°20'3 0.2
2018-Jul-20 02:26N 40°51' E 024°19'2 4.4
2018-Jul-20 02:00N 40°49' E 024°21'510.3
2018-Jul-20 01:30N 40°46' E 024°16'1 1.2
2018-Jul-20 00:55N 40°45' E 024°16'0 0.8
2018-Jul-20 00:30N 40°45' E 024°16'0 0.2
2018-Jul-20 00:00N 40°45' E 024°16'0 0.1
2018-Jul-19 23:23N 40°45' E 024°16'1 1.7
2018-Jul-19 23:00N 40°45' E 024°16'5 9.2
2018-Jul-19 22:30N 40°49' E 024°20'2 3.5
2018-Jul-19 22:00N 40°51' E 024°19'4 8.2
2018-Jul-19 21:29N 40°47' E 024°17'2 4.4
2018-Jul-19 21:00N 40°45' E 024°16'0 0.2
2018-Jul-19 20:30N 40°45' E 024°16'0 0.5
2018-Jul-19 20:00N 40°45' E 024°16'0 0.2
2018-Jul-19 19:30N 40°45' E 024°16'0 0.0
2018-Jul-19 18:56N 40°45' E 024°16'0 0.0
2018-Jul-19 18:30N 40°45' E 024°16'0 0.2
2018-Jul-19 18:00N 40°45' E 024°16'0 0.6
2018-Jul-19 17:30N 40°45' E 024°16'4 8.5
2018-Jul-19 17:00N 40°48' E 024°20'3 0.2
2018-Jul-19 01:17N 40°51' E 024°19'0 0.0
2018-Jul-19 01:00N 40°51' E 024°19'0 0.0
2018-Jul-19 00:30N 40°51' E 024°19'1 2.9
2018-Jul-19 00:00N 40°50' E 024°20'4 8.8
2018-Jul-18 23:30N 40°46' E 024°18'0 0.1
2018-Jul-18 23:00N 40°46' E 024°18'0 0.5
2018-Jul-18 22:30N 40°46' E 024°18'1 2.8
2018-Jul-18 22:00N 40°47' E 024°19'4 8.0
2018-Jul-18 21:30N 40°51' E 024°19'2 3.9
2018-Jul-18 21:00N 40°49' E 024°20'3 6.8
2018-Jul-18 20:30N 40°46' E 024°18'0 0.1
2018-Jul-18 20:00N 40°46' E 024°18'0 0.7
2018-Jul-18 19:30N 40°46' E 024°18'0 0.0
2018-Jul-18 19:00N 40°46' E 024°18'0 0.2
2018-Jul-18 18:30N 40°46' E 024°18'0 0.1
2018-Jul-18 18:00N 40°46' E 024°18'0 0.5
2018-Jul-18 17:30N 40°46' E 024°18'2 4.5
2018-Jul-18 16:59N 40°48' E 024°19'3 0.1
2018-Jul-17 05:42N 40°51' E 024°19'0 0.0
2018-Jul-17 05:30N 40°51' E 024°19'0 0.0
2018-Jul-17 05:00N 40°51' E 024°19'0 0.0
2018-Jul-17 04:30N 40°51' E 024°19'0 0.0
2018-Jul-17 04:00N 40°51' E 024°19'0 0.0
2018-Jul-17 03:30N 40°51' E 024°19'0 0.9
2018-Jul-17 03:00N 40°51' E 024°19'2 0.2
2018-Jul-16 16:54N 40°49' E 024°20'2 4.7
2018-Jul-16 16:28N 40°51' E 024°19'0 0.0
2018-Jul-16 15:59N 40°51' E 024°19'0 0.0
2018-Jul-16 15:30N 40°51' E 024°19'0 0.0
2018-Jul-16 09:13N 40°51' E 024°19'0 0.0
2018-Jul-16 08:57N 40°51' E 024°19'0 0.0
2018-Jul-16 08:07N 40°51' E 024°19'0 0.0
2018-Jul-16 06:47N 40°51' E 024°19'0 0.0
2018-Jul-16 06:17N 40°51' E 024°19'0 0.0
2018-Jul-16 05:54N 40°51' E 024°19'0 0.0
2018-Jul-16 05:30N 40°51' E 024°19'0 0.0
2018-Jul-16 04:59N 40°51' E 024°19'0 0.0
2018-Jul-16 04:27N 40°51' E 024°19'0 0.0
2018-Jul-16 03:57N 40°51' E 024°19'0 0.0
2018-Jul-16 03:30N 40°51' E 024°19'0 0.1
2018-Jul-16 03:00N 40°51' E 024°19'0 0.0
2018-Jul-16 02:30N 40°51' E 024°19'0 0.0
2018-Jul-16 02:00N 40°51' E 024°19'0 0.0
2018-Jul-16 01:30N 40°51' E 024°19'0 0.0
2018-Jul-15 16:43N 40°51' E 024°19'0 0.0
2018-Jul-15 16:30N 40°51' E 024°19'0 0.0
2018-Jul-15 16:00N 40°51' E 024°19'0 0.0
2018-Jul-15 15:30N 40°51' E 024°19'0 0.0
2018-Jul-15 15:00N 40°51' E 024°19'0 0.0
2018-Jul-15 14:30N 40°51' E 024°19'0 0.0
2018-Jul-15 14:01N 40°51' E 024°19'0 0.0
2018-Jul-15 13:30N 40°51' E 024°19'0 0.0
2018-Jul-15 13:00N 40°51' E 024°19'0 0.0
2018-Jul-15 12:30N 40°51' E 024°19'  
2018-Jul-11 17:49N 40°40' E 024°08'2 7.9
2018-Jul-11 17:31N 40°42' E 024°10'4 9.0
2018-Jul-11 17:01N 40°45' E 024°14'5 9.1
2018-Jul-11 16:31N 40°48' E 024°19'3 6.1
2018-Jul-11 16:00N 40°51' E 024°19'  

Dump ship's entire track history